sensor_id;sensor_type;location;lat;lon;timestamp;temperature;humidity
13172;DHT22;6651;53.200;10.432;2023-08-20T11:08:01;29.00;99.90
13172;DHT22;6651;53.200;10.432;2023-08-20T11:10:29;29.20;99.90
13172;DHT22;6651;53.200;10.432;2023-08-20T11:12:55;29.40;99.90
13172;DHT22;6651;53.200;10.432;2023-08-20T11:15:21;29.60;99.90
13172;DHT22;6651;53.200;10.432;2023-08-20T11:17:47;29.70;99.90
13172;DHT22;6651;53.200;10.432;2023-08-20T11:20:16;29.80;99.90
13172;DHT22;6651;53.200;10.432;2023-08-20T11:22:42;29.70;99.90
13172;DHT22;6651;53.200;10.432;2023-08-20T11:25:12;29.80;99.90
13172;DHT22;6651;53.200;10.432;2023-08-20T11:27:41;29.80;99.90
13172;DHT22;6651;53.200;10.432;2023-08-20T11:30:08;29.80;99.90
13172;DHT22;6651;53.200;10.432;2023-08-20T11:32:35;29.80;99.90
13172;DHT22;6651;53.200;10.432;2023-08-20T11:35:01;29.80;99.90
13172;DHT22;6651;53.200;10.432;2023-08-20T11:37:27;29.80;99.90
13172;DHT22;6651;53.200;10.432;2023-08-20T11:39:53;30.00;99.90
13172;DHT22;6651;53.200;10.432;2023-08-20T11:42:19;30.20;99.90
13172;DHT22;6651;53.200;10.432;2023-08-20T11:44:46;30.10;99.90
13172;DHT22;6651;53.200;10.432;2023-08-20T11:47:18;30.20;99.90
13172;DHT22;6651;53.200;10.432;2023-08-20T11:49:44;30.30;99.90
13172;DHT22;6651;53.200;10.432;2023-08-20T11:52:11;30.50;99.90
13172;DHT22;6651;53.200;10.432;2023-08-20T11:54:38;30.70;99.90
13172;DHT22;6651;53.200;10.432;2023-08-20T11:57:05;30.50;99.90
13172;DHT22;6651;53.200;10.432;2023-08-20T11:59:32;30.50;99.90
13172;DHT22;6651;53.200;10.432;2023-08-20T12:01:59;30.50;99.90
13172;DHT22;6651;53.200;10.432;2023-08-20T12:04:27;30.70;99.90
13172;DHT22;6651;53.200;10.432;2023-08-20T12:07:08;30.60;99.90
13172;DHT22;6651;53.200;10.432;2023-08-20T12:09:35;30.60;99.90
13172;DHT22;6651;53.200;10.432;2023-08-20T12:12:01;30.50;99.90
13172;DHT22;6651;53.200;10.432;2023-08-20T12:14:27;30.50;99.90
13172;DHT22;6651;53.200;10.432;2023-08-20T12:16:54;30.60;99.90
13172;DHT22;6651;53.200;10.432;2023-08-20T12:19:20;30.60;99.90
13172;DHT22;6651;53.200;10.432;2023-08-20T12:21:46;30.50;99.90
13172;DHT22;6651;53.200;10.432;2023-08-20T12:24:12;30.60;99.90
13172;DHT22;6651;53.200;10.432;2023-08-20T12:26:41;30.20;99.90
13172;DHT22;6651;53.200;10.432;2023-08-20T12:29:07;29.60;99.90
13172;DHT22;6651;53.200;10.432;2023-08-20T12:31:33;29.60;99.90
13172;DHT22;6651;53.200;10.432;2023-08-20T12:33:59;29.70;99.90
13172;DHT22;6651;53.200;10.432;2023-08-20T12:36:26;29.60;99.90
13172;DHT22;6651;53.200;10.432;2023-08-20T12:38:51;29.20;99.90
13172;DHT22;6651;53.200;10.432;2023-08-20T12:41:19;29.20;99.90
13172;DHT22;6651;53.200;10.432;2023-08-20T12:43:44;29.20;99.90
13172;DHT22;6651;53.200;10.432;2023-08-20T12:46:10;29.00;99.90
13172;DHT22;6651;53.200;10.432;2023-08-20T12:48:37;28.90;99.90
13172;DHT22;6651;53.200;10.432;2023-08-20T12:51:03;29.00;99.90
13172;DHT22;6651;53.200;10.432;2023-08-20T12:53:29;29.00;99.90
13172;DHT22;6651;53.200;10.432;2023-08-20T12:55:54;28.80;99.90
13172;DHT22;6651;53.200;10.432;2023-08-20T12:58:20;28.80;99.90
13172;DHT22;6651;53.200;10.432;2023-08-20T13:00:46;28.80;99.90
13172;DHT22;6651;53.200;10.432;2023-08-20T13:03:12;28.90;99.90
13172;DHT22;6651;53.200;10.432;2023-08-20T13:05:38;29.00;99.90
13172;DHT22;6651;53.200;10.432;2023-08-20T13:08:05;29.10;99.90
13172;DHT22;6651;53.200;10.432;2023-08-20T13:10:31;29.00;99.90
13172;DHT22;6651;53.200;10.432;2023-08-20T13:13:00;28.70;99.90
13172;DHT22;6651;53.200;10.432;2023-08-20T13:15:26;28.70;99.90
13172;DHT22;6651;53.200;10.432;2023-08-20T13:17:53;29.00;99.90
13172;DHT22;6651;53.200;10.432;2023-08-20T13:20:19;29.10;99.90
13172;DHT22;6651;53.200;10.432;2023-08-20T13:22:48;29.20;99.90
13172;DHT22;6651;53.200;10.432;2023-08-20T13:25:14;29.30;99.90
13172;DHT22;6651;53.200;10.432;2023-08-20T13:27:40;29.40;99.90
13172;DHT22;6651;53.200;10.432;2023-08-20T13:30:07;29.40;99.90
13172;DHT22;6651;53.200;10.432;2023-08-20T13:32:34;29.30;99.90
13172;DHT22;6651;53.200;10.432;2023-08-20T13:35:00;29.20;99.90
13172;DHT22;6651;53.200;10.432;2023-08-20T13:37:25;29.20;99.90
13172;DHT22;6651;53.200;10.432;2023-08-20T13:39:51;29.10;99.90
13172;DHT22;6651;53.200;10.432;2023-08-20T13:42:17;28.80;99.90
13172;DHT22;6651;53.200;10.432;2023-08-20T13:44:42;28.60;99.90
13172;DHT22;6651;53.200;10.432;2023-08-20T13:47:09;28.30;99.90
13172;DHT22;6651;53.200;10.432;2023-08-20T13:49:34;28.50;99.90
13172;DHT22;6651;53.200;10.432;2023-08-20T13:52:00;28.80;99.90
13172;DHT22;6651;53.200;10.432;2023-08-20T13:54:26;29.00;99.90
13172;DHT22;6651;53.200;10.432;2023-08-20T13:56:51;28.80;99.90
13172;DHT22;6651;53.200;10.432;2023-08-20T13:59:17;28.70;99.90
13172;DHT22;6651;53.200;10.432;2023-08-20T14:01:42;29.00;99.90
13172;DHT22;6651;53.200;10.432;2023-08-20T14:04:09;29.20;99.90
13172;DHT22;6651;53.200;10.432;2023-08-20T14:06:34;29.30;99.90
13172;DHT22;6651;53.200;10.432;2023-08-20T14:09:00;29.30;99.90
13172;DHT22;6651;53.200;10.432;2023-08-20T14:11:26;29.20;99.90
13172;DHT22;6651;53.200;10.432;2023-08-20T14:13:52;29.10;99.90
13172;DHT22;6651;53.200;10.432;2023-08-20T14:16:17;28.90;99.90
13172;DHT22;6651;53.200;10.432;2023-08-20T14:18:43;28.80;99.90
13172;DHT22;6651;53.200;10.432;2023-08-20T14:21:09;29.00;99.90
13172;DHT22;6651;53.200;10.432;2023-08-20T14:23:35;28.90;99.90
13172;DHT22;6651;53.200;10.432;2023-08-20T14:26:01;28.80;99.90
13172;DHT22;6651;53.200;10.432;2023-08-20T14:28:27;28.80;99.90
13172;DHT22;6651;53.200;10.432;2023-08-20T14:30:52;28.90;99.90
13172;DHT22;6651;53.200;10.432;2023-08-20T14:33:20;29.00;99.90
13172;DHT22;6651;53.200;10.432;2023-08-20T14:35:46;29.10;99.90
13172;DHT22;6651;53.200;10.432;2023-08-20T14:38:12;29.10;99.90
13172;DHT22;6651;53.200;10.432;2023-08-20T14:40:39;29.10;99.90
13172;DHT22;6651;53.200;10.432;2023-08-20T14:43:06;29.10;99.90
13172;DHT22;6651;53.200;10.432;2023-08-20T14:45:32;29.10;99.90
13172;DHT22;6651;53.200;10.432;2023-08-20T14:47:58;29.20;99.90
13172;DHT22;6651;53.200;10.432;2023-08-20T14:50:24;29.20;99.90
13172;DHT22;6651;53.200;10.432;2023-08-20T14:52:50;29.20;99.90
13172;DHT22;6651;53.200;10.432;2023-08-20T14:55:20;29.30;99.90
13172;DHT22;6651;53.200;10.432;2023-08-20T14:57:46;29.40;99.90
13172;DHT22;6651;53.200;10.432;2023-08-20T15:00:13;29.50;99.90
13172;DHT22;6651;53.200;10.432;2023-08-20T15:02:40;29.40;99.90
13172;DHT22;6651;53.200;10.432;2023-08-20T15:05:06;29.30;99.90
13172;DHT22;6651;53.200;10.432;2023-08-20T15:07:32;29.30;99.90
13172;DHT22;6651;53.200;10.432;2023-08-20T15:09:58;29.30;99.90
13172;DHT22;6651;53.200;10.432;2023-08-20T15:12:24;29.20;99.90
13172;DHT22;6651;53.200;10.432;2023-08-20T15:14:50;29.10;99.90
13172;DHT22;6651;53.200;10.432;2023-08-20T15:17:16;29.00;99.90
13172;DHT22;6651;53.200;10.432;2023-08-20T15:19:41;29.10;99.90
13172;DHT22;6651;53.200;10.432;2023-08-20T15:22:07;29.10;99.90
13172;DHT22;6651;53.200;10.432;2023-08-20T15:24:33;29.00;99.90
13172;DHT22;6651;53.200;10.432;2023-08-20T15:26:58;29.00;99.90
13172;DHT22;6651;53.200;10.432;2023-08-20T15:29:24;29.00;99.90
13172;DHT22;6651;53.200;10.432;2023-08-20T15:31:50;28.90;99.90
13172;DHT22;6651;53.200;10.432;2023-08-20T15:34:17;28.70;99.90
13172;DHT22;6651;53.200;10.432;2023-08-20T15:36:43;28.60;99.90
13172;DHT22;6651;53.200;10.432;2023-08-20T15:39:09;28.70;99.90
13172;DHT22;6651;53.200;10.432;2023-08-20T15:41:35;28.70;99.90
13172;DHT22;6651;53.200;10.432;2023-08-20T15:44:01;28.70;99.90
13172;DHT22;6651;53.200;10.432;2023-08-20T15:46:26;28.60;99.90
13172;DHT22;6651;53.200;10.432;2023-08-20T15:48:53;28.40;99.90
13172;DHT22;6651;53.200;10.432;2023-08-20T15:51:18;28.30;99.90
13172;DHT22;6651;53.200;10.432;2023-08-20T15:53:45;28.40;99.90
13172;DHT22;6651;53.200;10.432;2023-08-20T15:56:11;28.30;99.90
13172;DHT22;6651;53.200;10.432;2023-08-20T15:58:37;28.00;99.90
13172;DHT22;6651;53.200;10.432;2023-08-20T16:01:04;27.90;99.90
13172;DHT22;6651;53.200;10.432;2023-08-20T16:03:29;27.90;99.90
13172;DHT22;6651;53.200;10.432;2023-08-20T16:05:55;27.90;99.90
13172;DHT22;6651;53.200;10.432;2023-08-20T16:08:21;27.80;99.90
13172;DHT22;6651;53.200;10.432;2023-08-20T16:10:47;27.70;99.90
13172;DHT22;6651;53.200;10.432;2023-08-20T16:13:13;27.70;99.90
13172;DHT22;6651;53.200;10.432;2023-08-20T16:15:38;27.80;99.90
13172;DHT22;6651;53.200;10.432;2023-08-20T16:18:04;27.90;99.90
13172;DHT22;6651;53.200;10.432;2023-08-20T16:20:32;27.80;99.90
13172;DHT22;6651;53.200;10.432;2023-08-20T16:22:59;27.70;99.90
13172;DHT22;6651;53.200;10.432;2023-08-20T16:25:24;27.70;99.90
13172;DHT22;6651;53.200;10.432;2023-08-20T16:27:50;27.60;99.90
13172;DHT22;6651;53.200;10.432;2023-08-20T16:30:16;27.50;99.90
13172;DHT22;6651;53.200;10.432;2023-08-20T16:32:41;27.50;99.90
13172;DHT22;6651;53.200;10.432;2023-08-20T16:35:07;27.50;99.90
13172;DHT22;6651;53.200;10.432;2023-08-20T16:37:33;27.50;99.90
13172;DHT22;6651;53.200;10.432;2023-08-20T16:39:59;27.40;99.90
13172;DHT22;6651;53.200;10.432;2023-08-20T16:42:25;27.30;99.90
13172;DHT22;6651;53.200;10.432;2023-08-20T16:44:50;27.20;99.90
13172;DHT22;6651;53.200;10.432;2023-08-20T16:47:16;27.20;99.90
13172;DHT22;6651;53.200;10.432;2023-08-20T16:49:42;27.10;99.90
13172;DHT22;6651;53.200;10.432;2023-08-20T16:52:08;27.00;99.90
13172;DHT22;6651;53.200;10.432;2023-08-20T16:54:34;26.90;99.90
13172;DHT22;6651;53.200;10.432;2023-08-20T16:57:00;26.80;99.90
13172;DHT22;6651;53.200;10.432;2023-08-20T16:59:25;26.70;99.90
13172;DHT22;6651;53.200;10.432;2023-08-20T17:01:51;26.60;99.90
13172;DHT22;6651;53.200;10.432;2023-08-20T17:04:17;26.50;99.90
13172;DHT22;6651;53.200;10.432;2023-08-20T17:06:43;26.50;99.90
13172;DHT22;6651;53.200;10.432;2023-08-20T17:09:10;26.50;99.90
13172;DHT22;6651;53.200;10.432;2023-08-20T17:11:35;26.50;99.90
13172;DHT22;6651;53.200;10.432;2023-08-20T17:14:01;26.50;99.90
13172;DHT22;6651;53.200;10.432;2023-08-20T17:16:27;26.50;99.90
13172;DHT22;6651;53.200;10.432;2023-08-20T17:18:53;26.40;99.90
13172;DHT22;6651;53.200;10.432;2023-08-20T17:21:18;26.40;99.90
13172;DHT22;6651;53.200;10.432;2023-08-20T17:23:44;26.30;99.90
13172;DHT22;6651;53.200;10.432;2023-08-20T17:26:11;26.30;99.90
13172;DHT22;6651;53.200;10.432;2023-08-20T17:28:36;26.20;99.90
13172;DHT22;6651;53.200;10.432;2023-08-20T17:31:03;26.20;99.90
13172;DHT22;6651;53.200;10.432;2023-08-20T17:33:29;26.30;99.90
13172;DHT22;6651;53.200;10.432;2023-08-20T17:35:54;26.30;99.90
13172;DHT22;6651;53.200;10.432;2023-08-20T17:38:20;26.30;99.90
13172;DHT22;6651;53.200;10.432;2023-08-20T17:40:47;26.30;99.90
13172;DHT22;6651;53.200;10.432;2023-08-20T17:43:13;26.20;99.90
13172;DHT22;6651;53.200;10.432;2023-08-20T17:45:40;26.20;99.90
13172;DHT22;6651;53.200;10.432;2023-08-20T17:48:06;26.20;99.90
13172;DHT22;6651;53.200;10.432;2023-08-20T17:50:35;26.20;99.90
13172;DHT22;6651;53.200;10.432;2023-08-20T17:53:02;26.20;99.90
13172;DHT22;6651;53.200;10.432;2023-08-20T17:55:31;26.20;99.90
13172;DHT22;6651;53.200;10.432;2023-08-20T17:57:57;26.30;99.90
13172;DHT22;6651;53.200;10.432;2023-08-20T18:00:22;26.30;99.90
13172;DHT22;6651;53.200;10.432;2023-08-20T18:02:48;26.10;99.90
13172;DHT22;6651;53.200;10.432;2023-08-20T18:05:14;26.10;99.90
13172;DHT22;6651;53.200;10.432;2023-08-20T18:07:39;26.00;99.90
13172;DHT22;6651;53.200;10.432;2023-08-20T18:10:05;25.80;99.90
13172;DHT22;6651;53.200;10.432;2023-08-20T18:12:31;25.70;99.90
13172;DHT22;6651;53.200;10.432;2023-08-20T18:14:57;25.70;99.90
13172;DHT22;6651;53.200;10.432;2023-08-20T18:17:23;25.50;99.90
13172;DHT22;6651;53.200;10.432;2023-08-20T18:19:50;25.40;99.90
13172;DHT22;6651;53.200;10.432;2023-08-20T18:22:15;25.20;99.90
13172;DHT22;6651;53.200;10.432;2023-08-20T18:24:41;25.20;99.90
13172;DHT22;6651;53.200;10.432;2023-08-20T18:27:07;25.30;99.90
13172;DHT22;6651;53.200;10.432;2023-08-20T18:29:33;25.40;99.90
13172;DHT22;6651;53.200;10.432;2023-08-20T18:31:59;25.40;99.90
13172;DHT22;6651;53.200;10.432;2023-08-20T18:34:25;25.30;99.90
13172;DHT22;6651;53.200;10.432;2023-08-20T18:36:51;25.20;99.90
13172;DHT22;6651;53.200;10.432;2023-08-20T18:39:17;25.20;99.90
13172;DHT22;6651;53.200;10.432;2023-08-20T18:41:45;25.20;99.90
13172;DHT22;6651;53.200;10.432;2023-08-20T18:44:11;25.20;99.90
13172;DHT22;6651;53.200;10.432;2023-08-20T18:46:37;25.20;99.90
13172;DHT22;6651;53.200;10.432;2023-08-20T18:49:03;25.20;99.90
13172;DHT22;6651;53.200;10.432;2023-08-20T18:51:30;25.20;99.90
13172;DHT22;6651;53.200;10.432;2023-08-20T18:53:55;25.10;99.90
13172;DHT22;6651;53.200;10.432;2023-08-20T18:56:22;25.00;99.90
13172;DHT22;6651;53.200;10.432;2023-08-20T18:58:48;24.90;99.90
13172;DHT22;6651;53.200;10.432;2023-08-20T19:01:14;24.80;99.90
13172;DHT22;6651;53.200;10.432;2023-08-20T19:03:39;24.70;99.90
13172;DHT22;6651;53.200;10.432;2023-08-20T19:06:05;24.70;99.90
13172;DHT22;6651;53.200;10.432;2023-08-20T19:08:31;24.60;99.90
13172;DHT22;6651;53.200;10.432;2023-08-20T19:11:01;24.60;99.90
13172;DHT22;6651;53.200;10.432;2023-08-20T19:13:27;24.60;99.90
13172;DHT22;6651;53.200;10.432;2023-08-20T19:15:53;24.40;99.90
13172;DHT22;6651;53.200;10.432;2023-08-20T19:18:21;24.40;99.90
13172;DHT22;6651;53.200;10.432;2023-08-20T19:20:48;24.30;99.90
13172;DHT22;6651;53.200;10.432;2023-08-20T19:23:14;24.30;99.90
13172;DHT22;6651;53.200;10.432;2023-08-20T19:25:40;24.30;99.90
13172;DHT22;6651;53.200;10.432;2023-08-20T19:28:06;24.20;99.90
13172;DHT22;6651;53.200;10.432;2023-08-20T19:30:33;24.20;99.90
13172;DHT22;6651;53.200;10.432;2023-08-20T19:32:58;24.10;99.90
13172;DHT22;6651;53.200;10.432;2023-08-20T19:35:24;24.00;99.90
13172;DHT22;6651;53.200;10.432;2023-08-20T19:37:50;23.90;99.90
13172;DHT22;6651;53.200;10.432;2023-08-20T19:40:16;23.90;99.90
13172;DHT22;6651;53.200;10.432;2023-08-20T19:42:41;23.80;99.90
13172;DHT22;6651;53.200;10.432;2023-08-20T19:45:09;23.80;99.90
13172;DHT22;6651;53.200;10.432;2023-08-20T19:47:35;23.90;99.90
13172;DHT22;6651;53.200;10.432;2023-08-20T19:50:01;23.90;99.90
13172;DHT22;6651;53.200;10.432;2023-08-20T19:52:27;23.80;99.90
13172;DHT22;6651;53.200;10.432;2023-08-20T19:54:52;23.80;99.90
13172;DHT22;6651;53.200;10.432;2023-08-20T19:57:19;23.70;99.90
13172;DHT22;6651;53.200;10.432;2023-08-20T19:59:44;23.60;99.90
13172;DHT22;6651;53.200;10.432;2023-08-20T20:02:10;23.60;99.90
13172;DHT22;6651;53.200;10.432;2023-08-20T20:04:36;23.50;99.90
13172;DHT22;6651;53.200;10.432;2023-08-20T20:07:02;23.40;99.90
13172;DHT22;6651;53.200;10.432;2023-08-20T20:09:27;23.20;99.90
13172;DHT22;6651;53.200;10.432;2023-08-20T20:11:54;23.00;99.90
13172;DHT22;6651;53.200;10.432;2023-08-20T20:14:20;23.00;99.90
13172;DHT22;6651;53.200;10.432;2023-08-20T20:16:46;22.80;99.90
13172;DHT22;6651;53.200;10.432;2023-08-20T20:19:13;22.80;99.90
13172;DHT22;6651;53.200;10.432;2023-08-20T20:21:38;23.00;99.90
13172;DHT22;6651;53.200;10.432;2023-08-20T20:24:06;23.00;99.90
13172;DHT22;6651;53.200;10.432;2023-08-20T20:26:32;23.00;99.90
13172;DHT22;6651;53.200;10.432;2023-08-20T20:28:58;23.00;99.90
13172;DHT22;6651;53.200;10.432;2023-08-20T20:31:24;23.00;99.90
13172;DHT22;6651;53.200;10.432;2023-08-20T20:33:49;22.90;99.90
13172;DHT22;6651;53.200;10.432;2023-08-20T20:36:15;22.90;99.90
13172;DHT22;6651;53.200;10.432;2023-08-20T20:38:41;22.90;99.90
13172;DHT22;6651;53.200;10.432;2023-08-20T20:41:07;22.90;99.90
13172;DHT22;6651;53.200;10.432;2023-08-20T20:43:33;23.00;99.90
13172;DHT22;6651;53.200;10.432;2023-08-20T20:45:59;22.90;99.90
13172;DHT22;6651;53.200;10.432;2023-08-20T20:48:25;22.80;99.90
13172;DHT22;6651;53.200;10.432;2023-08-20T20:50:50;22.80;99.90
13172;DHT22;6651;53.200;10.432;2023-08-20T20:53:16;22.80;99.90
13172;DHT22;6651;53.200;10.432;2023-08-20T20:55:42;22.70;99.90
13172;DHT22;6651;53.200;10.432;2023-08-20T20:58:08;22.70;99.90
13172;DHT22;6651;53.200;10.432;2023-08-20T21:00:35;22.70;99.90
13172;DHT22;6651;53.200;10.432;2023-08-20T21:03:00;22.70;99.90
13172;DHT22;6651;53.200;10.432;2023-08-20T21:05:26;22.60;99.90
13172;DHT22;6651;53.200;10.432;2023-08-20T21:07:52;22.40;99.90
13172;DHT22;6651;53.200;10.432;2023-08-20T21:10:17;22.30;99.90
13172;DHT22;6651;53.200;10.432;2023-08-20T21:12:43;22.20;99.90
13172;DHT22;6651;53.200;10.432;2023-08-20T21:15:09;22.20;99.90
13172;DHT22;6651;53.200;10.432;2023-08-20T21:17:35;22.20;99.90
13172;DHT22;6651;53.200;10.432;2023-08-20T21:20:04;22.20;99.90
13172;DHT22;6651;53.200;10.432;2023-08-20T21:22:30;22.30;99.90
13172;DHT22;6651;53.200;10.432;2023-08-20T21:24:56;22.20;99.90
13172;DHT22;6651;53.200;10.432;2023-08-20T21:27:24;22.00;99.90
13172;DHT22;6651;53.200;10.432;2023-08-20T21:29:51;21.80;99.90
13172;DHT22;6651;53.200;10.432;2023-08-20T21:32:16;21.80;99.90
13172;DHT22;6651;53.200;10.432;2023-08-20T21:34:42;21.80;99.90
13172;DHT22;6651;53.200;10.432;2023-08-20T21:37:09;21.80;99.90
13172;DHT22;6651;53.200;10.432;2023-08-20T21:39:34;21.80;99.90
13172;DHT22;6651;53.200;10.432;2023-08-20T21:42:00;21.90;99.90
13172;DHT22;6651;53.200;10.432;2023-08-20T21:44:26;21.90;99.90
13172;DHT22;6651;53.200;10.432;2023-08-20T21:46:53;22.00;99.90
13172;DHT22;6651;53.200;10.432;2023-08-20T21:49:19;22.00;99.90
13172;DHT22;6651;53.200;10.432;2023-08-20T21:51:50;22.00;99.90
13172;DHT22;6651;53.200;10.432;2023-08-20T21:54:16;22.00;99.90
13172;DHT22;6651;53.200;10.432;2023-08-20T21:56:42;21.90;99.90
13172;DHT22;6651;53.200;10.432;2023-08-20T21:59:07;21.90;99.90
13172;DHT22;6651;53.200;10.432;2023-08-20T22:01:33;21.80;99.90
13172;DHT22;6651;53.200;10.432;2023-08-20T22:03:59;21.80;99.90
13172;DHT22;6651;53.200;10.432;2023-08-20T22:06:24;21.70;99.90
13172;DHT22;6651;53.200;10.432;2023-08-20T22:08:50;21.60;99.90
13172;DHT22;6651;53.200;10.432;2023-08-20T22:11:16;21.60;99.90
13172;DHT22;6651;53.200;10.432;2023-08-20T22:13:41;21.50;99.90
13172;DHT22;6651;53.200;10.432;2023-08-20T22:16:07;21.50;99.90
13172;DHT22;6651;53.200;10.432;2023-08-20T22:18:33;21.50;99.90
13172;DHT22;6651;53.200;10.432;2023-08-20T22:20:58;21.50;99.90
13172;DHT22;6651;53.200;10.432;2023-08-20T22:23:24;21.40;99.90
13172;DHT22;6651;53.200;10.432;2023-08-20T22:25:50;21.30;99.90
13172;DHT22;6651;53.200;10.432;2023-08-20T22:28:16;21.30;99.90
13172;DHT22;6651;53.200;10.432;2023-08-20T22:30:41;21.30;99.90
13172;DHT22;6651;53.200;10.432;2023-08-20T22:33:07;21.10;99.90
13172;DHT22;6651;53.200;10.432;2023-08-20T22:35:33;21.00;99.90
13172;DHT22;6651;53.200;10.432;2023-08-20T22:38:08;21.10;99.90
13172;DHT22;6651;53.200;10.432;2023-08-20T22:40:36;20.90;99.90
13172;DHT22;6651;53.200;10.432;2023-08-20T22:43:03;20.70;99.90
13172;DHT22;6651;53.200;10.432;2023-08-20T22:45:29;20.70;99.90
13172;DHT22;6651;53.200;10.432;2023-08-20T22:47:57;20.70;99.90
13172;DHT22;6651;53.200;10.432;2023-08-20T22:50:27;20.50;99.90
13172;DHT22;6651;53.200;10.432;2023-08-20T22:52:56;20.40;99.90
13172;DHT22;6651;53.200;10.432;2023-08-20T22:55:23;20.60;99.90
13172;DHT22;6651;53.200;10.432;2023-08-20T22:57:48;20.50;99.90
13172;DHT22;6651;53.200;10.432;2023-08-20T23:00:15;20.50;99.90
13172;DHT22;6651;53.200;10.432;2023-08-20T23:02:43;20.40;99.90
13172;DHT22;6651;53.200;10.432;2023-08-20T23:05:09;20.50;99.90
13172;DHT22;6651;53.200;10.432;2023-08-20T23:07:34;20.50;99.90
13172;DHT22;6651;53.200;10.432;2023-08-20T23:10:00;20.30;99.90
13172;DHT22;6651;53.200;10.432;2023-08-20T23:12:26;20.30;99.90
13172;DHT22;6651;53.200;10.432;2023-08-20T23:14:52;20.30;99.90
13172;DHT22;6651;53.200;10.432;2023-08-20T23:17:17;20.30;99.90
13172;DHT22;6651;53.200;10.432;2023-08-20T23:19:48;20.30;99.90
13172;DHT22;6651;53.200;10.432;2023-08-20T23:22:15;20.30;99.90
13172;DHT22;6651;53.200;10.432;2023-08-20T23:24:41;20.20;99.90
13172;DHT22;6651;53.200;10.432;2023-08-20T23:27:07;20.10;99.90
13172;DHT22;6651;53.200;10.432;2023-08-20T23:29:33;20.20;99.90
13172;DHT22;6651;53.200;10.432;2023-08-20T23:31:59;20.20;99.90
13172;DHT22;6651;53.200;10.432;2023-08-20T23:34:25;20.20;99.90
13172;DHT22;6651;53.200;10.432;2023-08-20T23:36:52;20.20;99.90
13172;DHT22;6651;53.200;10.432;2023-08-20T23:39:18;20.10;99.90
13172;DHT22;6651;53.200;10.432;2023-08-20T23:41:44;20.10;99.90
13172;DHT22;6651;53.200;10.432;2023-08-20T23:44:10;20.10;99.90
13172;DHT22;6651;53.200;10.432;2023-08-20T23:46:39;20.10;99.90
13172;DHT22;6651;53.200;10.432;2023-08-20T23:49:05;20.00;99.90
13172;DHT22;6651;53.200;10.432;2023-08-20T23:51:30;20.00;99.90
13172;DHT22;6651;53.200;10.432;2023-08-20T23:53:56;19.90;99.90
13172;DHT22;6651;53.200;10.432;2023-08-20T23:56:22;19.80;99.90
13172;DHT22;6651;53.200;10.432;2023-08-20T23:58:48;19.90;99.90
